Time;durP1;ratioP1;P1;durP2;ratioP2;P2;SDS_P1;SDS_P2;PMS_P1;PMS_P2;Temp;Humidity;BMP_temperature;BMP_pressure;BME280_temperature;BME280_humidity;BME280_pressure;Samples;Min_cycle;Max_cycle;Signal;HPM_P1;HPM_P2
2022/08/17 00:00:54;;;;;;;29.90;19.00;;;;;;;20.91;69.07;98320.34;105795;1277;107753;-69
2022/08/17 00:03:27;;;;;;;33.00;20.40;;;;;;;20.90;69.24;98324.02;105970;1276;98219;-70
2022/08/17 00:06:10;;;;;;;31.00;19.60;;;;;;;20.90;69.24;98322.48;105901;1277;98130;-72
2022/08/17 00:08:45;;;;;;;29.70;19.50;;;;;;;20.89;69.35;98321.65;105898;1276;111581;-69
2022/08/17 00:11:19;;;;;;;32.00;20.60;;;;;;;20.89;69.27;98319.45;105934;1276;97868;-70
2022/08/17 00:13:52;;;;;;;31.20;19.40;;;;;;;20.90;69.39;98319.20;105936;1276;106577;-71
2022/08/17 00:16:32;;;;;;;32.40;20.50;;;;;;;20.91;69.39;98321.08;105868;1277;97008;-70
2022/08/17 00:19:24;;;;;;;32.80;19.30;;;;;;;20.92;69.50;98323.12;105933;1276;95319;-69
2022/08/17 00:21:59;;;;;;;31.80;19.90;;;;;;;20.91;69.43;98326.04;105874;1276;112041;-68
2022/08/17 00:24:52;;;;;;;32.10;20.30;;;;;;;20.90;69.59;98321.98;105953;1276;98869;-68
2022/08/17 00:27:22;;;;;;;33.60;20.30;;;;;;;20.92;69.68;98322.87;105948;1276;108335;-69
2022/08/17 00:29:50;;;;;;;29.20;19.80;;;;;;;20.92;69.68;98323.92;105897;1278;97765;-69
2022/08/17 00:32:21;;;;;;;32.20;20.20;;;;;;;20.91;69.67;98322.63;105873;1278;97870;-70
2022/08/17 00:35:17;;;;;;;37.30;21.00;;;;;;;20.88;69.74;98325.96;105852;1276;112169;-69
2022/08/17 00:37:46;;;;;;;32.50;20.80;;;;;;;20.84;69.60;98325.32;105969;1276;97984;-70
2022/08/17 00:40:16;;;;;;;30.80;21.60;;;;;;;20.81;69.69;98326.24;105998;1276;108372;-69
2022/08/17 00:42:48;;;;;;;33.50;20.60;;;;;;;20.79;69.74;98331.66;105975;1276;97987;-71
2022/08/17 00:45:21;;;;;;;33.70;21.70;;;;;;;20.79;69.89;98326.19;105972;1276;97899;-70
2022/08/17 00:47:49;;;;;;;31.80;21.00;;;;;;;20.77;69.99;98329.29;105953;1276;114623;-71
2022/08/17 00:50:20;;;;;;;34.00;21.80;;;;;;;20.75;69.78;98328.21;105982;1276;96132;-68
2022/08/17 00:52:55;;;;;;;29.10;20.70;;;;;;;20.74;69.95;98324.80;105918;1277;108437;-68
2022/08/17 00:55:26;;;;;;;32.10;21.40;;;;;;;20.73;70.01;98323.58;105844;1279;98085;-69
2022/08/17 00:58:02;;;;;;;33.90;20.30;;;;;;;20.73;70.01;98326.08;105935;1277;97878;-69
2022/08/17 01:00:37;;;;;;;32.60;21.60;;;;;;;20.69;70.08;98327.17;105932;1276;113057;-70
2022/08/17 01:03:18;;;;;;;34.50;21.80;;;;;;;20.66;69.91;98327.05;105931;1277;98046;-70
2022/08/17 01:05:53;;;;;;;31.90;21.60;;;;;;;20.64;70.29;98330.11;106094;1276;107743;-69
2022/08/17 01:08:26;;;;;;;35.80;22.70;;;;;;;20.64;70.13;98331.42;106026;1276;97989;-70
2022/08/17 01:11:00;;;;;;;31.40;21.10;;;;;;;20.63;70.18;98330.64;105912;1276;95287;-70
2022/08/17 01:13:43;;;;;;;33.90;22.20;;;;;;;20.62;70.15;98334.88;106164;1276;111445;-71
2022/08/17 01:16:21;;;;;;;33.20;22.30;;;;;;;20.59;70.23;98331.30;105986;1276;96255;-71
2022/08/17 01:18:55;;;;;;;35.00;21.10;;;;;;;20.52;70.30;98336.75;105999;1276;107924;-71
2022/08/17 01:21:58;;;;;;;36.90;21.00;;;;;;;20.46;70.11;98334.73;106061;1276;97899;-70
2022/08/17 01:24:30;;;;;;;38.20;22.20;;;;;;;20.41;70.33;98338.25;105740;1276;97951;-72
2022/08/17 01:27:03;;;;;;;35.10;21.00;;;;;;;20.40;70.50;98338.38;106059;1276;111590;-71
2022/08/17 01:29:43;;;;;;;35.70;22.50;;;;;;;20.41;70.56;98337.43;106026;1276;95195;-70
2022/08/17 01:32:11;;;;;;;32.40;21.90;;;;;;;20.42;70.60;98335.11;105986;1276;107751;-71
2022/08/17 01:34:42;;;;;;;35.00;21.70;;;;;;;20.43;70.75;98331.42;105960;1278;97866;-67
2022/08/17 01:37:29;;;;;;;34.80;22.10;;;;;;;20.42;70.69;98329.83;106024;1276;96352;-70
2022/08/17 01:40:16;;;;;;;32.00;21.10;;;;;;;20.42;70.67;98330.08;105947;1276;111072;-69
2022/08/17 01:43:00;;;;;;;34.10;22.00;;;;;;;20.41;70.70;98328.61;105955;1276;95287;-70
2022/08/17 01:45:33;;;;;;;35.20;23.40;;;;;;;20.40;70.72;98328.19;105966;1275;107740;-71
2022/08/17 01:48:01;;;;;;;38.30;23.30;;;;;;;20.38;70.80;98329.22;105986;1275;97838;-72
2022/08/17 01:50:36;;;;;;;33.70;23.40;;;;;;;20.37;70.90;98327.23;106007;1274;96710;-70
2022/08/17 01:53:17;;;;;;;33.20;20.90;;;;;;;20.36;70.91;98329.16;106116;1275;111331;-69
2022/08/17 01:55:55;;;;;;;33.70;22.40;;;;;;;20.34;71.03;98326.86;106091;1277;97938;-70
2022/08/17 01:58:23;;;;;;;36.30;23.10;;;;;;;20.33;70.95;98332.62;105934;1277;107791;-70
2022/08/17 02:00:54;;;;;;;35.70;22.20;;;;;;;20.32;71.08;98333.48;105876;1277;97839;-67
2022/08/17 02:03:33;;;;;;;32.70;22.60;;;;;;;20.29;71.15;98329.31;105971;1277;96425;-69
2022/08/17 02:06:04;;;;;;;32.20;22.10;;;;;;;20.27;71.08;98334.63;105970;1274;112158;-69
2022/08/17 02:08:52;;;;;;;32.90;21.80;;;;;;;20.26;71.24;98337.59;106025;1275;97972;-67
2022/08/17 02:11:37;;;;;;;32.60;21.90;;;;;;;20.25;71.20;98337.52;106035;1276;108392;-69
2022/08/17 02:14:09;;;;;;;34.00;22.40;;;;;;;20.24;71.26;98333.36;106049;1275;97982;-68
2022/08/17 02:16:40;;;;;;;36.30;21.80;;;;;;;20.24;71.25;98331.07;106039;1277;97955;-69
2022/08/17 02:19:14;;;;;;;34.00;22.40;;;;;;;20.23;71.40;98333.05;105972;1276;111432;-68
2022/08/17 02:21:49;;;;;;;38.30;23.10;;;;;;;20.22;71.44;98332.64;106165;1276;97798;-67
2022/08/17 02:24:28;;;;;;;31.70;22.50;;;;;;;20.22;71.41;98329.94;106009;1277;107808;-69
2022/08/17 02:27:15;;;;;;;32.70;22.30;;;;;;;20.21;71.43;98329.25;105958;1276;95308;-69
2022/08/17 02:29:43;;;;;;;32.70;22.70;;;;;;;20.18;71.55;98331.72;106034;1276;97844;-69
2022/08/17 02:32:26;;;;;;;32.10;22.80;;;;;;;20.18;71.49;98330.27;106000;1277;111707;-67
2022/08/17 02:35:00;;;;;;;32.30;22.30;;;;;;;20.20;71.54;98334.60;106000;1276;95201;-68
2022/08/17 02:37:30;;;;;;;38.80;23.50;;;;;;;20.19;71.64;98342.20;105906;1278;108545;-70
2022/08/17 02:40:03;;;;;;;32.80;22.80;;;;;;;20.20;71.70;98340.13;106005;1276;97898;-72
2022/08/17 02:42:37;;;;;;;32.70;23.50;;;;;;;20.19;71.66;98340.41;106062;1277;97889;-68
2022/08/17 02:45:21;;;;;;;39.90;24.80;;;;;;;20.19;71.79;98346.93;106113;1277;111367;-69
2022/08/17 02:47:53;;;;;;;34.90;23.80;;;;;;;20.19;71.81;98347.97;106011;1277;97939;-69
2022/08/17 02:50:25;;;;;;;32.50;23.00;;;;;;;20.19;71.82;98345.68;105998;1277;108364;-69
2022/08/17 02:52:55;;;;;;;35.80;21.70;;;;;;;20.18;71.82;98347.92;105941;1277;95349;-67
2022/08/17 02:55:38;;;;;;;34.80;22.80;;;;;;;20.16;71.87;98349.45;105918;1278;97873;-69
2022/08/17 02:58:12;;;;;;;33.70;22.30;;;;;;;20.11;71.68;98342.49;105923;1278;111583;-70
2022/08/17 03:00:46;;;;;;;35.80;23.20;;;;;;;20.08;71.90;98342.50;106036;1278;97892;-69
2022/08/17 03:03:19;;;;;;;34.20;22.60;;;;;;;20.09;71.84;98347.62;105983;1277;107825;-70
2022/08/17 03:05:51;;;;;;;30.10;22.00;;;;;;;20.08;71.86;98347.93;106033;1277;97889;-71
2022/08/17 03:08:22;;;;;;;36.60;22.30;;;;;;;20.07;71.98;98347.71;106050;1277;97882;-69
2022/08/17 03:10:53;;;;;;;32.60;22.70;;;;;;;20.05;71.84;98350.95;106003;1278;111411;-68
2022/08/17 03:13:23;;;;;;;34.20;21.60;;;;;;;20.04;71.89;98348.19;106069;1277;95189;-69
2022/08/17 03:15:51;;;;;;;33.50;20.80;;;;;;;20.03;71.92;98348.01;106027;1277;107863;-71
2022/08/17 03:18:22;;;;;;;33.40;21.70;;;;;;;20.02;71.93;98346.13;105996;1277;97780;-72
2022/08/17 03:21:00;;;;;;;30.90;21.00;;;;;;;20.00;71.99;98349.92;106026;1278;97872;-71
2022/08/17 03:23:31;;;;;;;31.80;21.60;;;;;;;20.00;72.01;98354.54;106012;1277;111527;-71
2022/08/17 03:25:59;;;;;;;34.20;22.00;;;;;;;19.98;72.01;98355.88;105974;1278;97915;-71
2022/08/17 03:28:41;;;;;;;30.20;20.80;;;;;;;19.95;72.07;98363.08;105953;1277;107728;-69
2022/08/17 03:31:08;;;;;;;32.30;21.60;;;;;;;19.93;71.93;98367.83;105902;1278;97957;-69
2022/08/17 03:33:37;;;;;;;30.40;21.40;;;;;;;19.90;72.05;98369.20;105929;1277;97874;-71
2022/08/17 03:36:05;;;;;;;30.10;19.90;;;;;;;19.87;71.97;98370.94;105913;1276;111427;-69
2022/08/17 03:38:33;;;;;;;30.30;19.90;;;;;;;19.85;72.09;98372.80;105922;1277;96884;-71
2022/08/17 03:41:09;;;;;;;29.70;20.00;;;;;;;19.83;72.01;98375.05;105883;1277;107683;-70
2022/08/17 03:43:37;;;;;;;33.70;21.70;;;;;;;19.80;72.09;98374.48;105859;1277;97961;-69
2022/08/17 03:57:31;;;;;;;32.00;20.10;;;;;;;19.67;72.15;98390.84;105919;1277;97954;-69
2022/08/17 03:59:59;;;;;;;28.80;19.40;;;;;;;19.64;72.21;98391.58;105984;1278;113595;-70
2022/08/17 04:02:35;;;;;;;29.90;19.60;;;;;;;19.63;72.19;98391.27;105974;1277;95469;-70
2022/08/17 04:05:05;;;;;;;31.70;20.30;;;;;;;19.62;72.20;98391.36;105885;1278;107565;-69
2022/08/17 04:07:36;;;;;;;33.40;21.30;;;;;;;19.60;72.14;98393.08;106001;1277;97963;-70
2022/08/17 04:10:04;;;;;;;29.40;21.40;;;;;;;19.60;72.21;98393.15;105975;1278;97743;-72
2022/08/17 04:12:57;;;;;;;36.60;23.10;;;;;;;19.60;72.35;98396.66;105905;1277;111392;-68
2022/08/17 04:15:25;;;;;;;36.90;24.60;;;;;;;19.62;72.49;98401.48;105876;1278;98092;-68
2022/08/17 04:17:53;;;;;;;33.50;23.10;;;;;;;19.64;72.51;98401.46;105836;1277;106871;-69
2022/08/17 04:20:26;;;;;;;36.50;25.30;;;;;;;19.66;72.55;98406.77;105889;1277;97944;-69
2022/08/17 04:23:08;;;;;;;33.50;23.40;;;;;;;19.68;72.56;98404.80;105985;1277;97889;-70
2022/08/17 04:25:47;;;;;;;37.00;25.30;;;;;;;19.70;72.63;98402.59;106011;1276;111398;-70
2022/08/17 04:28:19;;;;;;;33.90;24.00;;;;;;;19.71;72.66;98399.95;106071;1277;97849;-71
2022/08/17 04:30:47;;;;;;;36.30;24.60;;;;;;;19.71;72.61;98395.22;105963;1278;107785;-70
2022/08/17 04:33:22;;;;;;;37.90;25.10;;;;;;;19.73;72.70;98390.64;105956;1277;95317;-69
2022/08/17 04:35:58;;;;;;;35.70;24.90;;;;;;;19.77;72.77;98389.64;105896;1280;97920;-70
2022/08/17 04:38:34;;;;;;;34.60;23.80;;;;;;;19.81;72.76;98393.52;105828;1278;111530;-70
2022/08/17 04:43:57;;;;;;;37.60;24.80;;;;;;;19.87;72.93;98390.77;105883;1277;107766;-71
2022/08/17 04:46:33;;;;;;;34.40;25.30;;;;;;;19.91;72.96;98393.73;105943;1277;97832;-68
2022/08/17 04:49:07;;;;;;;38.40;25.90;;;;;;;19.95;72.96;98389.32;105945;1278;98046;-72
2022/08/17 04:51:45;;;;;;;33.00;24.60;;;;;;;19.96;73.07;98391.71;105746;1281;111409;-73
2022/08/17 04:54:26;;;;;;;34.10;25.20;;;;;;;19.99;73.10;98394.27;105975;1277;97886;-75
2022/08/17 04:56:55;;;;;;;36.20;25.00;;;;;;;20.01;73.12;98387.64;105828;1278;107519;-76
2022/08/17 04:59:26;;;;;;;37.80;24.90;;;;;;;20.04;73.08;98389.63;106020;1277;95289;-76
2022/08/17 05:01:54;;;;;;;33.50;23.60;;;;;;;20.08;73.08;98391.27;106028;1277;97979;-77
2022/08/17 05:04:26;;;;;;;36.40;26.70;;;;;;;20.14;73.15;98391.48;106030;1277;111476;-76
2022/08/17 05:07:05;;;;;;;32.40;24.10;;;;;;;20.20;73.27;98390.02;106010;1277;98028;-77
2022/08/17 05:09:32;;;;;;;35.60;24.70;;;;;;;20.23;73.12;98391.46;105942;1277;107770;-75
2022/08/17 05:12:05;;;;;;;32.90;24.20;;;;;;;20.26;73.11;98396.35;106030;1277;97889;-74
2022/08/17 05:14:32;;;;;;;36.30;25.00;;;;;;;20.29;73.25;98399.24;106018;1277;97962;-77
2022/08/17 05:17:05;;;;;;;35.90;23.30;;;;;;;20.32;73.27;98397.91;105986;1277;110193;-75
2022/08/17 05:19:41;;;;;;;35.70;23.80;;;;;;;20.37;73.20;98398.23;106007;1277;95352;-74
2022/08/17 05:22:09;;;;;;;34.60;24.00;;;;;;;20.42;73.21;98398.81;105993;1277;108080;-75
2022/08/17 05:24:37;;;;;;;35.80;26.20;;;;;;;20.48;73.28;98396.41;105957;1277;97947;-75
2022/08/17 05:27:11;;;;;;;36.70;26.20;;;;;;;20.55;73.41;98394.72;105912;1277;98086;-75
2022/08/17 05:29:46;;;;;;;32.60;23.80;;;;;;;20.63;73.36;98398.52;105923;1278;111149;-75
2022/08/17 05:32:14;;;;;;;32.10;23.40;;;;;;;20.70;73.46;98402.86;106052;1276;97902;-74
2022/08/17 05:35:06;;;;;;;34.30;23.40;;;;;;;20.78;73.39;98401.41;105859;1277;105933;-73
2022/08/17 05:37:33;;;;;;;33.40;23.50;;;;;;;20.83;73.45;98400.77;105818;1277;95853;-74
2022/08/17 05:40:01;;;;;;;32.80;22.60;;;;;;;20.90;73.44;98405.58;106035;1277;95280;-73
2022/08/17 05:42:29;;;;;;;34.20;23.80;;;;;;;20.95;73.52;98406.24;106134;1276;111090;-74
2022/08/17 05:44:57;;;;;;;32.40;23.00;;;;;;;21.00;73.52;98409.27;106115;1276;98018;-74
2022/08/17 05:47:30;;;;;;;33.90;23.40;;;;;;;21.04;73.60;98410.25;106052;1276;107826;-74
2022/08/17 05:50:04;;;;;;;30.50;21.90;;;;;;;21.06;73.60;98414.30;105847;1278;97983;-74
2022/08/17 05:53:09;;;;;;;31.60;23.90;;;;;;;21.11;73.55;98408.81;106160;1277;97928;-74
2022/08/17 05:56:02;;;;;;;33.50;23.20;;;;;;;21.18;73.38;98411.30;106044;1277;112035;-74
2022/08/17 05:59:14;;;;;;;30.70;22.80;;;;;;;21.24;73.50;98415.45;106017;1277;97913;-73
2022/08/17 06:01:51;;;;;;;33.40;24.70;;;;;;;21.29;73.29;98419.84;106022;1276;107896;-73
2022/08/17 06:04:27;;;;;;;33.70;23.20;;;;;;;21.35;73.54;98420.77;106062;1276;98728;-74
2022/08/17 06:07:28;;;;;;;34.00;22.60;;;;;;;21.40;73.48;98412.84;106027;1277;97850;-74
2022/08/17 06:10:12;;;;;;;30.80;22.30;;;;;;;21.50;73.39;98420.41;106013;1277;111399;-74
2022/08/17 06:13:06;;;;;;;31.40;23.40;;;;;;;21.54;73.46;98422.02;106006;1277;95413;-75
2022/08/17 06:16:02;;;;;;;33.40;23.10;;;;;;;21.57;73.16;98422.27;106125;1277;107419;-74
2022/08/17 06:19:01;;;;;;;37.00;24.10;;;;;;;21.58;73.23;98422.75;106015;1276;97935;-75
2022/08/17 06:21:36;;;;;;;35.90;24.20;;;;;;;21.59;73.25;98424.71;106007;1276;98683;-74
2022/08/17 06:24:27;;;;;;;32.20;23.40;;;;;;;21.56;73.35;98422.16;106021;1277;111463;-74
2022/08/17 06:27:23;;;;;;;35.10;22.70;;;;;;;21.53;73.29;98423.59;105961;1276;97859;-73
2022/08/17 06:30:07;;;;;;;29.00;22.30;;;;;;;21.55;73.21;98422.68;105942;1276;107517;-74
2022/08/17 06:32:43;;;;;;;38.50;24.00;;;;;;;21.59;73.31;98422.75;105834;1277;97974;-71
2022/08/17 06:35:29;;;;;;;31.90;23.00;;;;;;;21.66;73.37;98425.08;106042;1277;96591;-73
2022/08/17 06:38:06;;;;;;;31.90;24.20;;;;;;;21.74;73.15;98422.63;105948;1277;112526;-72
2022/08/17 06:40:42;;;;;;;33.60;24.90;;;;;;;21.78;73.23;98421.90;106016;1277;97915;-74
2022/08/17 06:43:39;;;;;;;35.20;24.00;;;;;;;21.84;73.46;98415.49;105951;1276;107808;-74
2022/08/17 06:46:34;;;;;;;36.00;23.10;;;;;;;21.97;73.39;98416.89;106076;1277;97956;-76
2022/08/17 06:49:20;;;;;;;34.20;23.20;;;;;;;22.08;73.34;98418.65;106131;1276;95271;-75
2022/08/17 06:52:00;;;;;;;37.20;24.50;;;;;;;22.13;73.37;98421.29;106126;1276;112372;-76
2022/08/17 06:54:37;;;;;;;31.60;24.40;;;;;;;22.17;73.55;98420.48;106048;1276;97982;-76
2022/08/17 06:57:27;;;;;;;34.00;24.40;;;;;;;22.19;73.26;98419.66;105969;1277;110694;-75
2022/08/17 07:00:11;;;;;;;36.40;25.40;;;;;;;22.22;73.66;98423.36;105978;1278;97011;-73
2022/08/17 07:03:05;;;;;;;36.30;25.20;;;;;;;22.34;73.35;98421.65;105969;1276;95334;-77
2022/08/17 07:05:36;;;;;;;35.00;24.20;;;;;;;22.47;73.04;98422.46;105878;1277;110922;-76
2022/08/17 07:08:36;;;;;;;39.20;24.40;;;;;;;22.58;73.05;98423.78;105990;1276;97909;-74
2022/08/17 07:11:14;;;;;;;36.30;24.50;;;;;;;22.68;72.97;98423.21;105995;1276;107642;-73
2022/08/17 07:13:57;;;;;;;31.80;23.80;;;;;;;22.80;73.15;98422.23;105856;1276;98012;-74
2022/08/17 07:16:33;;;;;;;30.90;22.90;;;;;;;23.06;72.96;98421.98;105812;1277;96697;-74
2022/08/17 07:19:01;;;;;;;31.00;22.70;;;;;;;23.66;72.31;98423.25;105915;1276;111164;-73
2022/08/17 07:21:47;;;;;;;31.60;20.90;;;;;;;24.72;71.56;98416.48;105924;1276;97724;-74
2022/08/17 07:24:49;;;;;;;28.30;20.30;;;;;;;25.93;71.36;98417.95;106006;1276;107728;-72
2022/08/17 07:27:22;;;;;;;25.50;18.00;;;;;;;27.23;70.98;98418.31;106071;1276;97851;-72
2022/08/17 07:29:56;;;;;;;29.10;19.50;;;;;;;28.27;70.77;98420.05;106118;1276;98105;-70
2022/08/17 07:32:38;;;;;;;27.40;19.00;;;;;;;29.18;70.40;98414.17;106153;1276;111345;-73
2022/08/17 07:35:21;;;;;;;26.90;17.10;;;;;;;30.03;69.93;98415.08;106128;1276;97712;-73
2022/08/17 07:38:09;;;;;;;22.40;16.00;;;;;;;30.88;69.73;98415.44;105921;1276;108835;-74
2022/08/17 07:40:56;;;;;;;22.90;15.80;;;;;;;31.71;68.98;98416.38;106002;1276;95200;-73
2022/08/17 07:43:34;;;;;;;22.60;16.40;;;;;;;32.46;69.04;98413.56;106149;1276;97910;-73
2022/08/17 07:49:12;;;;;;;26.60;17.00;;;;;;;33.09;68.65;98416.96;105961;1276;98312;-73
2022/08/17 07:51:42;;;;;;;23.10;17.20;;;;;;;33.18;69.05;98407.20;106017;1276;107849;-73
2022/08/17 07:54:13;;;;;;;25.70;17.70;;;;;;;33.51;68.06;98405.58;106118;1276;95284;-73
2022/08/17 07:56:49;;;;;;;30.20;17.80;;;;;;;33.84;67.56;98403.73;106117;1276;97996;-72
2022/08/17 07:59:31;;;;;;;25.70;18.30;;;;;;;34.28;67.01;98409.95;106078;1276;111580;-73
2022/08/17 08:02:14;;;;;;;28.30;19.00;;;;;;;34.59;66.36;98408.53;106153;1276;98011;-74
2022/08/17 08:04:48;;;;;;;26.30;17.20;;;;;;;34.76;66.53;98412.33;105992;1276;107698;-74
2022/08/17 08:07:38;;;;;;;27.90;16.40;;;;;;;34.57;66.39;98420.96;106023;1276;97995;-74
2022/08/17 08:10:12;;;;;;;25.50;16.90;;;;;;;34.90;65.83;98419.18;106015;1276;97969;-73
2022/08/17 08:12:42;;;;;;;25.90;17.00;;;;;;;34.76;65.86;98419.98;106016;1276;111384;-72
2022/08/17 08:15:20;;;;;;;25.70;17.80;;;;;;;34.42;65.60;98425.45;106018;1276;98379;-72
2022/08/17 08:17:50;;;;;;;27.10;18.00;;;;;;;33.82;64.85;98420.73;106000;1276;107501;-72
2022/08/17 08:20:30;;;;;;;26.90;19.20;;;;;;;33.23;65.01;98422.36;106007;1276;97912;-72
2022/08/17 08:23:36;;;;;;;25.60;18.20;;;;;;;32.90;63.69;98420.00;105998;1276;97893;-72
2022/08/17 08:26:19;;;;;;;24.40;17.30;;;;;;;33.06;63.40;98419.33;105968;1276;111533;-73
2022/08/17 08:28:53;;;;;;;24.70;17.60;;;;;;;33.65;62.69;98423.08;105990;1276;98379;-73
2022/08/17 08:32:03;;;;;;;25.80;18.70;;;;;;;33.82;62.14;98419.83;105987;1276;107773;-72
2022/08/17 08:34:47;;;;;;;25.30;16.60;;;;;;;33.56;62.27;98421.94;106112;1276;98081;-72
2022/08/17 08:38:14;;;;;;;25.30;15.30;;;;;;;33.03;61.91;98423.80;106116;1276;97966;-74
2022/08/17 08:41:25;;;;;;;22.20;14.00;;;;;;;33.49;61.38;98421.52;105323;1284;111607;-72
2022/08/17 08:44:14;;;;;;;23.40;14.00;;;;;;;33.98;60.97;98421.24;105066;1284;95692;-73
2022/08/17 08:47:06;;;;;;;23.90;16.40;;;;;;;33.64;60.85;98416.52;105865;1276;107755;-71
2022/08/17 08:49:40;;;;;;;;;;;;;;;33.23;60.60;98420.53;106027;1276;97013;-71
2022/08/17 08:53:06;;;;;;;23.60;14.20;;;;;;;33.46;60.13;98426.97;105982;1276;97870;-72
2022/08/17 08:55:41;;;;;;;20.80;12.30;;;;;;;34.05;59.34;98425.11;106065;1276;111361;-73
2022/08/17 08:58:15;;;;;;;22.60;12.80;;;;;;;34.49;58.84;98430.45;106065;1276;98459;-74
2022/08/17 09:01:17;;;;;;;22.00;12.20;;;;;;;34.64;58.56;98431.02;106109;1276;107845;-75
2022/08/17 09:03:44;;;;;;;21.00;11.80;;;;;;;34.27;58.67;98432.36;106057;1275;95580;-75
2022/08/17 09:06:42;;;;;;;23.50;13.60;;;;;;;33.96;58.18;98427.33;106134;1275;97992;-75
2022/08/17 09:09:33;;;;;;;22.10;13.90;;;;;;;34.20;57.93;98427.64;106055;1276;111384;-76
2022/08/17 09:12:16;;;;;;;23.60;13.00;;;;;;;34.55;57.49;98426.33;106031;1276;98376;-75
2022/08/17 09:14:56;;;;;;;22.40;15.10;;;;;;;34.51;57.53;98425.45;106019;1276;107662;-75
2022/08/17 09:17:35;;;;;;;25.30;15.00;;;;;;;34.44;57.52;98422.07;105953;1276;97001;-75
2022/08/17 09:20:24;;;;;;;25.20;15.40;;;;;;;33.80;56.95;98425.09;105989;1274;96116;-74
2022/08/17 09:23:29;;;;;;;21.70;15.20;;;;;;;33.07;56.64;98430.96;105989;1276;111576;-72
2022/08/17 09:26:12;;;;;;;23.70;15.70;;;;;;;32.25;56.48;98434.08;106085;1274;98526;-74
2022/08/17 09:28:48;;;;;;;25.90;16.70;;;;;;;31.65;56.06;98435.93;106067;1275;107760;-71
2022/08/17 09:31:24;;;;;;;26.80;15.50;;;;;;;31.35;55.90;98436.45;106058;1274;97994;-73
2022/08/17 09:34:01;;;;;;;24.00;16.40;;;;;;;31.54;55.38;98438.27;106320;1274;95280;-76
2022/08/17 09:36:59;;;;;;;24.20;15.60;;;;;;;31.92;55.40;98438.08;106602;1276;110219;-74
2022/08/17 09:39:40;;;;;;;25.20;14.40;;;;;;;32.28;55.36;98439.33;106081;1276;98528;-74
2022/08/17 09:42:15;;;;;;;23.00;15.20;;;;;;;32.40;55.38;98433.77;105918;1277;108827;-72
2022/08/17 09:44:52;;;;;;;22.00;14.00;;;;;;;32.44;54.91;98441.03;106033;1276;97893;-73
2022/08/17 09:47:31;;;;;;;25.00;15.30;;;;;;;32.15;54.83;98442.18;106025;1276;98161;-74
2022/08/17 09:50:12;;;;;;;25.30;16.30;;;;;;;31.79;54.56;98440.41;106003;1276;111469;-76
2022/08/17 09:52:41;;;;;;;26.10;15.30;;;;;;;31.44;54.59;98439.70;105999;1276;96617;-74
2022/08/17 09:55:09;;;;;;;29.10;17.00;;;;;;;31.05;54.64;98436.80;106155;1274;107843;-75
2022/08/17 09:57:48;;;;;;;27.00;16.40;;;;;;;30.72;54.57;98434.13;106026;1276;97892;-75
2022/08/17 10:00:23;;;;;;;26.10;17.10;;;;;;;30.50;54.64;98434.05;106078;1276;97883;-75
2022/08/17 10:03:09;;;;;;;28.80;16.60;;;;;;;30.36;54.51;98434.39;106115;1276;111457;-74
2022/08/17 10:05:45;;;;;;;26.50;17.00;;;;;;;30.20;54.62;98439.96;106114;1276;97905;-77
2022/08/17 10:08:37;;;;;;;24.30;16.80;;;;;;;30.03;54.57;98437.19;106001;1276;107804;-76
2022/08/17 10:11:10;;;;;;;26.50;16.80;;;;;;;30.04;54.42;98434.78;106085;1276;96630;-76
2022/08/17 10:13:42;;;;;;;26.00;16.30;;;;;;;30.10;54.61;98437.93;106108;1276;99908;-77
2022/08/17 10:16:27;;;;;;;23.70;16.20;;;;;;;30.15;54.40;98435.24;105976;1276;111266;-76
2022/08/17 10:19:02;;;;;;;23.90;15.50;;;;;;;30.20;54.34;98440.14;106069;1276;97933;-75
2022/08/17 10:27:51;;;;;;;23.30;15.00;;;;;;;30.18;54.26;98440.04;105998;1276;97974;-76
2022/08/17 10:30:24;;;;;;;23.10;17.30;;;;;;;30.18;54.28;98433.69;106076;1276;111368;-78
2022/08/17 10:32:55;;;;;;;;;;;;;;;30.22;54.39;98436.91;106059;1276;98258;-81
2022/08/17 10:35:52;;;;;;;23.20;14.90;;;;;;;30.20;54.26;98442.88;105943;1276;107879;-78
2022/08/17 10:38:58;;;;;;;21.40;14.70;;;;;;;30.11;54.14;98447.48;106045;1276;97951;-78
2022/08/17 10:41:40;;;;;;;28.70;16.40;;;;;;;29.92;53.90;98443.23;105837;1276;97879;-78
2022/08/17 10:44:25;;;;;;;27.50;16.60;;;;;;;29.79;53.96;98438.32;105958;1276;111423;-79
2022/08/17 10:47:15;;;;;;;24.70;15.60;;;;;;;29.62;53.87;98435.58;105921;1276;97875;-78
2022/08/17 10:49:54;;;;;;;25.80;15.80;;;;;;;29.49;53.81;98436.10;105843;1276;106802;-78
2022/08/17 10:52:26;;;;;;;25.80;16.60;;;;;;;29.36;53.89;98439.17;105887;1276;97865;-80
2022/08/17 10:54:55;;;;;;;25.60;15.40;;;;;;;29.22;53.71;98437.58;105618;1276;97893;-76
2022/08/17 10:57:25;;;;;;;22.10;16.10;;;;;;;29.12;53.80;98435.05;105898;1276;112982;-77
2022/08/17 10:59:55;;;;;;;26.30;15.40;;;;;;;28.94;53.69;98435.70;105848;1276;96516;-80
2022/08/17 11:02:27;;;;;;;26.60;15.40;;;;;;;28.82;53.86;98439.55;105884;1276;106573;-79
2022/08/17 11:05:12;;;;;;;22.80;13.80;;;;;;;28.77;53.77;98436.48;105997;1276;97981;-70
2022/08/17 11:08:04;;;;;;;22.80;13.50;;;;;;;28.76;53.57;98440.04;106027;1276;97844;-72
2022/08/17 11:10:53;;;;;;;25.80;14.90;;;;;;;28.73;53.70;98436.99;106049;1276;111471;-77
2022/08/17 11:13:43;;;;;;;24.80;17.60;;;;;;;28.79;53.71;98432.21;106052;1276;98168;-77
2022/08/17 11:16:25;;;;;;;23.40;13.40;;;;;;;28.86;53.67;98429.44;106086;1276;107562;-72
2022/08/17 11:18:55;;;;;;;22.20;13.10;;;;;;;28.88;53.75;98424.81;106008;1276;96038;-77
2022/08/17 11:21:57;;;;;;;25.70;15.70;;;;;;;28.88;53.57;98425.86;106077;1276;95182;-79
2022/08/17 11:24:36;;;;;;;22.60;12.30;;;;;;;28.88;53.72;98422.34;105961;1276;111254;-77
2022/08/17 11:27:08;;;;;;;21.50;12.60;;;;;;;28.85;53.38;98425.96;105942;1276;97729;-72
2022/08/17 11:29:56;;;;;;;24.60;15.50;;;;;;;28.83;53.69;98421.23;105904;1276;107822;-80
2022/08/17 11:32:44;;;;;;;21.80;12.10;;;;;;;28.82;53.64;98425.14;105887;1276;97951;-78
2022/08/17 11:35:20;;;;;;;25.20;14.40;;;;;;;28.78;53.64;98420.58;105956;1276;97982;-75
2022/08/17 11:38:28;;;;;;;23.70;14.30;;;;;;;28.76;53.68;98420.27;105856;1276;110414;-80
2022/08/17 11:41:21;;;;;;;21.80;12.20;;;;;;;28.71;53.50;98418.37;105884;1276;98277;-73
2022/08/17 11:43:55;;;;;;;;;;;;;;;28.66;53.73;98416.30;106071;1276;107915;-73
2022/08/17 11:53:36;;;;;;;20.40;10.30;;;;;;;28.57;53.67;98419.90;105798;1276;111653;-74
2022/08/17 11:56:09;;;;;;;21.30;9.80;;;;;;;28.47;53.62;98423.95;105882;1276;97987;-73
2022/08/17 11:58:41;;;;;;;18.40;10.60;;;;;;;28.45;53.70;98425.38;105902;1276;108080;-74
2022/08/17 12:01:12;;;;;;;19.70;9.50;;;;;;;28.44;53.55;98425.86;105959;1276;95268;-77
2022/08/17 12:03:45;;;;;;;20.10;9.40;;;;;;;28.47;53.55;98422.97;106109;1276;97872;-76
2022/08/17 12:06:26;;;;;;;19.40;9.50;;;;;;;28.51;53.63;98421.08;105998;1276;111090;-76
2022/08/17 12:09:30;;;;;;;17.30;8.80;;;;;;;28.58;53.66;98422.27;105966;1276;98225;-76
2022/08/17 12:12:13;;;;;;;19.30;9.30;;;;;;;28.65;53.32;98422.59;105922;1276;107692;-74
2022/08/17 12:14:49;;;;;;;18.90;9.10;;;;;;;28.65;53.53;98420.73;105961;1276;98000;-78
2022/08/17 12:17:37;;;;;;;19.80;9.80;;;;;;;28.62;53.43;98418.09;106056;1276;97881;-82
2022/08/17 12:20:29;;;;;;;18.60;9.30;;;;;;;28.60;53.47;98421.01;106032;1276;111520;-80
2022/08/17 12:23:03;;;;;;;19.00;9.50;;;;;;;28.58;53.33;98422.77;106096;1276;96566;-80
2022/08/17 12:25:39;;;;;;;23.40;9.50;;;;;;;28.54;53.50;98423.04;106100;1275;107744;-79
2022/08/17 12:28:44;;;;;;;16.40;9.40;;;;;;;28.49;53.29;98424.31;105978;1276;96560;-78
2022/08/17 12:31:19;;;;;;;19.20;9.50;;;;;;;28.46;53.39;98424.76;105779;1276;97964;-74